Latest Weather Observations for Melbourne Airport

IDV60801

Issued at 4:03 pm EDT Tuesday 10 December 2019 (issued every 10 minutes, with the page automatically refreshed every 10 minutes)

About weather observations | Map of weather stations | Latest weather observations for VIC | Other Formats
Station Details ID: 086282 Name: MELBOURNE AIRPORT Lat: -37.67 Lon: 144.83 Height: 113.4 m
Data from the previous 72 hours. | See also: Recent months at Melbourne Airport
Date/Time
EDT
Temp
°C
App
Temp
°C
Dew
Point
°C
Rel
Hum
%
Delta-T
°C
Wind Press
QNH
hPa
Press
MSL
hPa
Rain since
9am
mm
Dir  Spd
km/h
Gust
km/h
Spd
kts
Gust
kts
10/03:30pm 17.3 11.0 5.8 46 5.6 S 28 35 15 19 1019.6 1019.3 0.2
10/03:00pm 17.1 10.1 6.1 48 5.4 S 32 41 17 22 1019.9 1019.6 0.2
10/02:30pm 17.3 10.3 5.8 46 5.6 SSE 32 43 17 23 1019.7 1019.4 0.0
10/02:00pm 16.5 9.6 6.3 51 5.0 SSE 32 43 17 23 1019.8 1019.5 0.0
10/01:50pm 17.1 10.6 6.3 49 5.3 SSE 30 48 16 26 1019.8 1019.5 0.0
10/01:30pm 17.6 10.8 6.8 49 5.4 SSE 32 46 17 25 1019.9 1019.6 0.0
10/01:00pm 17.0 10.3 7.5 53 4.8 SSE 32 39 17 21 1020.0 1019.7 0.0
10/12:30pm 16.6 11.2 8.1 57 4.3 S 26 35 14 19 1019.9 1019.6 0.0
10/12:00pm 15.2 9.6 8.7 65 3.3 SSE 28 33 15 18 1019.9 1019.6 0.0
10/11:30am 15.1 10.4 9.3 68 3.0 S 24 30 13 16 1019.9 1019.6 0.0
10/11:00am 14.4 8.7 11.0 80 1.8 SSE 32 35 17 19 1019.8 1019.5 0.0
10/10:30am 15.2 10.8 10.5 73 2.5 S 24 30 13 16 1019.6 1019.3 0.0
10/10:00am 14.4 11.0 10.4 77 2.1 S 19 26 10 14 1019.5 1019.2 0.0
10/09:30am 14.4 10.9 10.8 79 1.9 S 20 26 11 14 1019.3 1019.0 0.0
10/09:00am 14.1 10.9 11.3 83 1.5 S 19 26 10 14 1019.2 1018.9 0.0
10/08:30am 13.9 10.6 11.7 86 1.2 S 20 26 11 14 1018.9 1018.6 0.0
10/08:00am 13.7 11.5 12.0 89 0.9 SSE 15 19 8 10 1018.7 1018.4 0.0
10/07:30am 13.1 10.2 12.4 95 0.4 S 19 26 10 14 1018.5 1018.2 0.0
10/07:18am 13.1 10.1 12.4 95 0.4 S 20 30 11 16 1018.4 1018.1 0.0
10/07:06am 13.4 10.6 12.7 95 0.4 S 19 26 10 14 1018.1 1017.8 0.0
10/07:00am 13.3 10.5 12.6 95 0.4 S 19 26 10 14 1017.9 1017.7 0.0
10/06:49am 13.4 10.7 13.0 97 0.2 S 19 26 10 14 1017.8 1017.6 0.0
10/06:36am 13.4 10.1 12.9 97 0.3 S 22 30 12 16 1017.7 1017.5 0.0
10/06:30am 13.5 10.6 12.8 95 0.4 S 20 30 11 16 1017.6 1017.4 0.0
10/06:00am 14.0 12.1 12.9 93 0.6 S 15 19 8 10 1017.2 1017.0 0.0
10/05:50am 13.9 12.4 13.0 94 0.5 S 13 17 7 9 1017.1 1016.9 0.0
10/05:30am 13.6 11.0 13.1 97 0.3 S 19 26 10 14 1017.0 1016.8 0.0
10/05:23am 13.7 11.4 13.0 96 0.4 S 17 22 9 12 1017.0 1016.8 0.0
10/05:00am 14.2 11.8 12.7 91 0.8 S 17 20 9 11 1016.9 1016.7 0.0
10/04:30am 14.3 12.3 12.7 90 0.9 S 15 19 8 10 1016.3 1016.1 0.0
10/04:00am 14.2 12.3 13.1 93 0.6 SSE 15 19 8 10 1016.0 1015.8 0.0
10/03:30am 14.7 12.7 12.7 88 1.1 S 15 22 8 12 1016.2 1016.0 0.0
10/03:00am 14.6 12.2 12.6 88 1.1 S 17 26 9 14 1016.0 1015.8 0.0
10/02:30am 14.9 12.8 12.5 85 1.3 SSE 15 20 8 11 1015.8 1015.6 0.0
10/02:00am 15.0 12.3 12.8 87 1.2 SE 19 26 10 14 1015.8 1015.6 0.0
10/01:30am 15.1 12.2 12.9 87 1.2 SE 20 28 11 15 1016.9 1016.7 0.0
10/01:00am 15.3 13.8 13.1 87 1.2 SSE 13 17 7 9 1018.4 1018.1 0.0
10/12:30am 15.6 14.2 13.3 86 1.3 SSW 13 20 7 11 1018.4 1018.1 0.0
10/12:00am 15.8 13.5 13.1 84 1.5 SE 17 26 9 14 1017.6 1017.4 0.0
 
Date/Time
EDT
Temp
°C
App
Temp
°C
Dew
Point
°C
Rel
Hum
%
Delta-T
°C
Wind Press
QNH
hPa
Press
MSL
hPa
Rain since
9am
mm
Dir  Spd
km/h
Gust
km/h
Spd
kts
Gust
kts
09/11:30pm 15.9 12.7 13.0 83 1.6 SSE 22 28 12 15 1017.6 1017.4 0.0
09/11:19pm 16.1 14.3 13.2 83 1.6 SE 15 22 8 12 1018.1 1017.8 0.0
09/11:00pm 16.2 13.6 13.2 82 1.7 SE 19 30 10 16 1018.5 1018.2 0.0
09/10:30pm 16.5 12.2 13.3 81 1.8 SE 28 32 15 17 1017.3 1017.1 0.0
09/10:00pm 18.5 15.7 12.6 68 3.3 SSE 19 28 10 15 1017.8 1017.6 0.0
09/09:30pm 19.2 16.7 12.4 64 3.8 S 17 26 9 14 1016.7 1016.5 0.0
09/09:00pm 19.8 16.7 12.3 62 4.2 SSE 20 26 11 14 1015.9 1015.7 0.0
09/08:30pm 21.1 16.9 11.2 53 5.5 S 24 33 13 18 1014.8 1014.5 0.0
09/08:00pm 22.9 16.5 8.5 39 7.7 S 32 41 17 22 1013.6 1013.3 0.0
09/07:30pm 25.6 21.2 6.5 29 10.0 S 19 24 10 13 1012.5 1012.2 0.0
09/07:00pm 27.3 21.6 6.8 27 10.9 SSW 26 33 14 18 1011.7 1011.4 0.0
09/06:30pm 30.7 24.0 3.7 18 13.9 SSW 28 37 15 20 1010.3 1010.0 0.0
09/06:00pm 36.4 30.3 -7.9 5 19.6 NNW 17 24 9 13 1009.7 1009.4 0.0
09/05:30pm 36.9 30.8 -8.0 5 19.9 NNW 17 22 9 12 1010.0 1009.7 0.0
09/05:00pm 36.4 30.8 -6.5 6 19.4 NNW 15 22 8 12 1010.3 1010.0 0.0
09/04:30pm 36.6 29.9 -7.8 5 19.7 NW 20 30 11 16 1010.8 1010.5 0.0
09/04:00pm 36.7 28.3 -9.8 5 20.0 N 28 37 15 20 1010.6 1010.3 0.0
09/03:30pm 37.6 30.3 -6.4 6 20.1 NNW 24 37 13 20 1011.0 1010.7 0.0
09/03:00pm 37.9 30.6 -6.5 6 20.3 NW 24 39 13 21 1011.5 1011.2 0.0
09/02:30pm 37.3 29.8 -4.4 7 19.6 NNW 26 37 14 20 1012.0 1011.7 0.0
09/02:00pm 36.9 29.3 -5.3 6 19.5 NNW 26 43 14 23 1012.4 1012.1 0.0
09/01:48pm 37.2 28.6 -4.1 7 19.5 N 32 52 17 28 1012.4 1012.1 0.0
09/01:30pm 36.3 28.3 -5.7 6 19.2 NNW 28 44 15 24 1012.8 1012.5 0.0
09/01:01pm 35.7 27.0 -3.0 8 18.4 NNW 33 52 18 28 1013.0 1012.7 0.0
09/01:00pm 35.3 26.2 -3.3 8 18.2 NNW 35 52 19 28 1013.2 1012.9 0.0
09/12:30pm 34.9 25.0 -3.5 8 18.0 N 39 57 21 31 1013.2 1012.9 0.0
09/12:00pm 35.0 25.4 -1.6 9 17.7 N 39 59 21 32 1013.5 1013.2 0.0
09/11:52am 34.2 24.1 -2.5 9 17.4 N 41 59 22 32 1013.6 1013.3 0.0
09/11:30am 33.2 22.8 -2.0 10 16.7 N 43 57 23 31 1013.8 1013.5 0.0
09/11:15am 33.2 24.2 -0.1 12 16.3 N 37 59 20 32 1013.8 1013.5 0.0
09/11:00am 32.0 22.5 2.0 15 15.1 N 41 54 22 29 1013.7 1013.4 0.0
09/10:30am 31.4 22.1 0.5 14 15.1 N 39 57 21 31 1014.2 1013.9 0.0
09/10:27am 31.1 21.6 -0.7 13 15.2 N 39 57 21 31 1014.2 1013.9 0.0
09/10:00am 30.2 21.5 2.1 16 14.0 N 37 52 20 28 1014.4 1014.1 0.0
09/09:30am 30.3 22.0 1.9 16 14.1 N 35 44 19 24 1014.7 1014.4 0.0
09/09:00am 29.3 21.2 1.2 16 13.7 N 33 44 18 24 1014.7 1014.4 0.0
09/08:30am 27.2 19.1 3.4 21 11.9 N 35 46 19 25 1014.0 1013.7 0.0
09/08:00am 25.4 18.6 5.2 27 10.3 N 30 39 16 21 1014.1 1013.8 0.0
09/07:30am 23.3 16.8 6.4 33 8.7 N 30 35 16 19 1013.6 1013.3 0.0
09/07:00am 21.5 14.4 6.6 38 7.6 N 33 39 18 21 1013.2 1012.9 0.0
09/06:30am 20.1 13.6 6.4 41 6.9 N 30 35 16 19 1013.2 1012.9 0.0
09/06:00am 20.8 14.3 6.4 39 7.3 NNW 30 33 16 18 1013.2 1012.9 0.0
09/05:30am 19.9 14.3 7.2 43 6.5 N 26 32 14 17 1013.1 1012.8 0.0
09/05:00am 18.8 13.8 7.9 49 5.6 N 24 26 13 14 1013.1 1012.8 0.0
09/04:30am 19.3 14.3 8.1 48 5.8 N 24 28 13 15 1013.3 1013.0 0.0
09/04:00am 18.2 13.8 8.8 54 4.9 N 22 28 12 15 1013.8 1013.5 0.0
09/03:30am 15.1 12.0 10.4 73 2.5 NNE 17 17 9 9 1014.3 1014.0 0.0
09/03:00am 15.9 14.4 10.4 70 2.9 NNE 9 9 5 5 1014.9 1014.6 0.0
09/02:30am 16.3 14.7 10.3 67 3.2 NNE 9 11 5 6 1015.0 1014.7 0.0
09/02:00am 15.5 13.7 10.8 73 2.5 N 11 13 6 7 1015.0 1014.7 0.0
09/01:30am 16.0 13.4 10.8 71 2.8 N 15 17 8 9 1015.4 1015.1 0.0
09/01:00am 16.3 14.1 10.9 70 2.9 N 13 15 7 8 1016.1 1015.9 0.0
09/12:30am 17.0 14.6 11.3 69 3.1 N 15 17 8 9 1016.4 1016.2 0.0
09/12:00am 17.3 14.5 11.4 68 3.2 N 17 19 9 10 1016.5 1016.3 0.0
 
Date/Time
EDT
Temp
°C
App
Temp
°C
Dew
Point
°C
Rel
Hum
%
Delta-T
°C
Wind Press
QNH
hPa
Press
MSL
hPa
Rain since
9am
mm
Dir  Spd
km/h
Gust
km/h
Spd
kts
Gust
kts
08/11:30pm 16.9 15.3 11.6 71 2.9 N 11 13 6 7 1016.6 1016.4 0.0
08/11:00pm 16.9 15.8 11.8 72 2.8 NNW 9 11 5 6 1017.0 1016.8 0.0
08/10:30pm 17.7 16.5 11.7 68 3.3 NW 9 11 5 6 1017.1 1016.9 0.0
08/10:00pm 17.6 16.6 12.2 70 3.0 WSW 9 9 5 5 1017.4 1017.2 0.0
08/09:30pm 18.6 17.7 12.5 67 3.4 SW 9 11 5 6 1017.3 1017.1 0.0
08/09:00pm 19.1 17.7 12.1 64 3.9 SSW 11 13 6 7 1017.2 1017.0 0.0
08/08:30pm 19.5 17.7 12.0 62 4.2 SSW 13 13 7 7 1017.0 1016.8 0.0
08/08:00pm 21.5 20.0 11.9 54 5.4 S 11 15 6 8 1016.7 1016.5 0.0
08/07:30pm 22.9 20.1 11.5 48 6.4 S 17 20 9 11 1016.5 1016.3 0.0
08/07:00pm 24.2 21.2 10.5 42 7.6 SSE 17 22 9 12 1016.2 1016.0 0.0
08/06:30pm 25.0 21.8 9.8 38 8.4 SSE 17 20 9 11 1016.0 1015.8 0.0
08/06:00pm 25.2 21.7 10.1 38 8.4 SSE 19 26 10 14 1016.0 1015.8 0.0
08/05:30pm 26.3 23.2 8.9 33 9.5 SSE 15 24 8 13 1016.1 1015.9 0.0
08/05:00pm 25.5 22.2 9.5 36 8.8 SSE 17 26 9 14 1016.4 1016.2 0.0
08/04:30pm 25.2 22.0 8.5 34 9.0 SSE 15 20 8 11 1016.5 1016.3 0.0
08/04:00pm 25.1 21.5 8.4 34 9.0 SE 17 26 9 14 1016.6 1016.4 0.0
08/03:30pm 24.9 21.7 8.3 34 8.9 SSE 15 22 8 12 1016.8 1016.6 0.0
08/03:00pm 24.0 20.8 8.3 36 8.4 SSE 15 24 8 13 1017.2 1017.0 0.0
08/02:30pm 24.3 20.5 7.7 34 8.8 SSE 17 24 9 13 1017.6 1017.4 0.0
08/02:00pm 24.2 21.6 7.8 35 8.7 SE 11 17 6 9 1017.7 1017.5 0.0
08/01:30pm 22.9 19.3 6.6 35 8.4 ESE 15 19 8 10 1018.2 1017.9 0.0
08/01:00pm 22.4 20.5 7.4 38 7.8 SSW 7 17 4 9 1018.5 1018.2 0.0
08/12:30pm 21.4 19.0 7.0 39 7.4 SW 9 15 5 8 1018.7 1018.4 0.0
08/12:00pm 20.5 17.8 7.5 43 6.7 ESE 11 17 6 9 1018.9 1018.6 0.0
08/11:30am 19.7 17.0 7.4 45 6.3 ESE 11 19 6 10 1019.0 1018.7 0.0
08/11:00am 18.7 15.8 8.0 49 5.5 ESE 13 22 7 12 1019.2 1018.9 0.0
08/10:30am 17.9 14.9 7.9 52 5.1 ESE 13 17 7 9 1019.6 1019.3 0.0
08/10:00am 17.2 14.9 7.5 53 4.9 SSE 9 20 5 11 1019.8 1019.5 0.0
08/09:30am 16.6 14.0 7.7 55 4.5 ESE 11 17 6 9 1020.0 1019.7 0.0
08/09:00am 16.2 13.6 7.9 58 4.2 SE 11 19 6 10 1020.2 1019.9 0.0
08/08:30am 15.8 14.0 8.1 60 3.9 S 7 19 4 10 1020.1 1019.8 0.0
08/08:00am 14.5 12.0 8.1 65 3.2 S 11 13 6 7 1019.8 1019.5 0.0
08/07:30am 13.9 10.9 7.9 67 3.0 SSE 13 17 7 9 1019.5 1019.2 0.0
08/07:00am 13.7 10.8 8.1 69 2.8 ESE 13 17 7 9 1019.2 1018.9 0.0
08/06:30am 13.6 11.6 8.6 72 2.5 SSE 9 19 5 10 1018.8 1018.5 0.0
08/06:00am 13.3 11.3 8.5 72 2.4 S 9 11 5 6 1018.9 1018.6 0.0
08/05:30am 13.2 11.5 8.4 72 2.4 S 7 9 4 5 1018.9 1018.6 0.0
08/05:00am 13.2 11.1 8.4 72 2.4 S 9 11 5 6 1018.7 1018.4 0.0
08/04:30am 13.2 11.1 8.4 72 2.4 S 9 9 5 5 1018.9 1018.6 0.0
08/04:00am 13.2 10.7 8.2 71 2.5 SSW 11 13 6 7 1018.9 1018.6 0.0
08/03:30am 13.2 11.2 8.8 74 2.2 S 9 13 5 7 1019.0 1018.7 0.0
08/03:00am 13.1 10.9 9.2 77 2.0 SSW 11 15 6 8 1018.9 1018.6 0.0
08/02:30am 13.1 11.3 9.6 79 1.8 S 9 13 5 7 1019.0 1018.7 0.0
08/02:00am 13.1 11.0 9.8 80 1.7 S 11 15 6 8 1019.1 1018.8 0.0
08/01:30am 12.8 11.1 9.7 81 1.6 S 9 11 5 6 1019.2 1018.9 0.0
08/01:00am 12.6 10.9 9.7 82 1.5 S 9 11 5 6 1019.2 1018.9 0.0
08/12:30am 13.5 11.3 9.4 76 2.1 S 11 13 6 7 1019.4 1019.1 0.0
08/12:00am 13.4 11.6 9.3 76 2.1 S 9 11 5 6 1019.6 1019.3 0.0
 
Date/Time
EDT
Temp
°C
App
Temp
°C
Dew
Point
°C
Rel
Hum
%
Delta-T
°C
Wind Press
QNH
hPa
Press
MSL
hPa
Rain since
9am
mm
Dir  Spd
km/h
Gust
km/h
Spd
kts
Gust
kts
07/11:30pm 13.4 11.6 9.5 77 2.0 S 9 13 5 7 1019.6 1019.3 0.0
07/11:00pm 13.4 11.2 9.3 76 2.1 S 11 13 6 7 1019.8 1019.5 0.0
07/10:30pm 13.2 10.6 9.5 78 1.9 SSE 13 17 7 9 1019.7 1019.4 0.0
07/10:00pm 13.3 10.3 9.4 77 2.0 SSE 15 19 8 10 1019.8 1019.5 0.0
07/09:56pm 13.3 10.3 9.4 77 2.0 S 15 19 8 10 1019.8 1019.5 0.0
07/09:30pm 13.3 10.0 9.4 77 2.0 SSE 17 20 9 11 1019.7 1019.4 0.0
07/09:00pm 13.2 9.3 8.8 74 2.2 S 19 28 10 15 1019.6 1019.3 0.0
07/08:30pm 13.5 9.5 9.0 74 2.3 SSE 20 28 11 15 1019.2 1018.9 0.0
07/08:00pm 14.2 8.7 9.1 71 2.6 SSE 28 35 15 19 1018.7 1018.4 0.0
07/07:30pm 15.2 9.7 9.0 66 3.2 SSE 28 37 15 20 1018.2 1017.9 0.0
07/07:00pm 16.2 11.0 8.8 61 3.8 SSE 26 33 14 18 1017.7 1017.5 0.0
07/06:30pm 16.6 11.4 8.9 60 4.0 SSE 26 33 14 18 1017.1 1016.9 0.0
07/06:00pm 17.2 11.7 9.1 59 4.2 SSE 28 33 15 18 1016.8 1016.6 0.0
07/05:30pm 18.0 12.5 9.2 56 4.6 SSE 28 35 15 19 1016.6 1016.4 0.0
07/05:00pm 18.3 12.4 8.9 54 4.9 SSE 30 37 16 20 1016.4 1016.2 0.0
07/04:30pm 19.3 13.6 8.3 49 5.7 S 28 35 15 19 1016.2 1016.0 0.0

Other formats

Comma delimited format used in spreadsheet applications
http://www.bom.gov.au/fwo/IDV60801/IDV60801.94866.axf

JavaScript Object Notation format (JSON) in row-major order
http://www.bom.gov.au/fwo/IDV60801/IDV60801.94866.json

Data quality

Most of these data are generated automatically and are frequently updated. Quality checks on data are not normally performed. It is possible for incorrect values to appear. Refer to information at About Latest Weather Observations and please check the disclaimer before using these data.